createdAt,value
2018-02-08T00:01:25.860Z,0.00
2018-02-08T00:02:57.673Z,0.00
2018-02-08T00:04:29.489Z,0.00
2018-02-08T00:06:01.305Z,0.00
2018-02-08T00:07:33.124Z,0.00
2018-02-08T00:09:04.937Z,0.00
2018-02-08T00:10:36.853Z,0.00
2018-02-08T00:12:08.568Z,0.00
2018-02-08T00:13:40.385Z,0.00
2018-02-08T00:15:12.201Z,0.00
2018-02-08T00:16:44.116Z,0.00
2018-02-08T00:18:15.831Z,0.00
2018-02-08T00:19:47.647Z,0.00
2018-02-08T00:21:19.463Z,0.00
2018-02-08T00:22:51.280Z,0.00
2018-02-08T00:24:23.095Z,0.00
2018-02-08T00:25:54.945Z,0.00
2018-02-08T00:27:26.727Z,0.00
2018-02-08T00:28:58.947Z,0.00
2018-02-08T00:30:30.359Z,0.00
2018-02-08T00:32:02.176Z,0.00
2018-02-08T00:33:33.996Z,0.00
2018-02-08T00:35:06.008Z,0.00
2018-02-08T00:36:37.623Z,0.00
2018-02-08T00:38:09.441Z,0.00
2018-02-08T00:39:41.254Z,0.00
2018-02-08T00:41:13.071Z,0.00
2018-02-08T00:42:44.886Z,0.00
2018-02-08T00:44:16.718Z,0.00
2018-02-08T00:45:48.517Z,0.00
2018-02-08T00:47:20.534Z,0.00
2018-02-08T00:48:52.152Z,0.00
2018-02-08T00:50:23.965Z,0.00
2018-02-08T00:51:55.781Z,0.00
2018-02-08T00:53:27.799Z,0.00
2018-02-08T00:54:59.413Z,0.00
2018-02-08T00:56:31.228Z,0.00
2018-02-08T00:58:03.043Z,0.00
2018-02-08T00:59:34.859Z,0.00
2018-02-08T01:01:06.675Z,0.00
2018-02-08T01:02:38.491Z,0.00
2018-02-08T01:04:10.318Z,0.00
2018-02-08T01:05:42.424Z,0.00
2018-02-08T01:07:13.936Z,0.00
2018-02-08T01:08:45.752Z,0.00
2018-02-08T01:10:17.588Z,0.00
2018-02-08T01:11:49.407Z,0.00
2018-02-08T01:13:21.198Z,0.00
2018-02-08T01:14:53.013Z,0.00
2018-02-08T01:16:24.829Z,0.00
2018-02-08T01:17:56.745Z,0.00
2018-02-08T01:19:28.460Z,0.00
2018-02-08T01:21:00.332Z,0.00
2018-02-08T01:22:32.143Z,0.00
2018-02-08T01:24:04.007Z,0.00
2018-02-08T01:25:35.722Z,0.00
2018-02-08T01:27:07.538Z,0.00
2018-02-08T01:28:39.354Z,0.00
2018-02-08T01:30:11.371Z,0.00
2018-02-08T01:31:42.984Z,0.00
2018-02-08T01:33:14.804Z,0.00
2018-02-08T01:34:46.616Z,0.00
2018-02-08T01:36:18.581Z,0.00
2018-02-08T01:37:50.246Z,0.00
2018-02-08T01:39:22.061Z,0.00
2018-02-08T01:40:53.876Z,0.00
2018-02-08T01:42:25.792Z,0.00
2018-02-08T01:43:57.506Z,0.00
2018-02-08T01:45:29.322Z,0.00
2018-02-08T01:47:01.137Z,0.00
2018-02-08T01:48:32.953Z,0.00
2018-02-08T01:50:04.768Z,0.00
2018-02-08T01:51:36.582Z,0.00
2018-02-08T01:53:08.397Z,0.00
2018-02-08T01:54:40.212Z,0.00
2018-02-08T01:56:12.027Z,0.00
2018-02-08T01:57:43.842Z,0.00
2018-02-08T01:59:15.657Z,0.00
2018-02-08T02:00:47.571Z,0.00
2018-02-08T02:02:19.286Z,0.00
2018-02-08T02:03:51.101Z,0.00
2018-02-08T02:05:22.916Z,0.00
2018-02-08T02:06:54.731Z,0.00
2018-02-08T02:08:26.546Z,0.00
2018-02-08T02:09:58.371Z,0.00
2018-02-08T02:11:30.176Z,0.00
2018-02-08T02:13:01.990Z,0.00
2018-02-08T02:14:33.805Z,0.00
2018-02-08T02:16:05.620Z,0.00
2018-02-08T02:17:37.435Z,0.00
2018-02-08T02:19:09.451Z,0.00
2018-02-08T02:20:41.064Z,0.00
2018-02-08T02:22:12.880Z,0.00
2018-02-08T02:23:44.694Z,0.00
2018-02-08T02:25:16.659Z,0.00
2018-02-08T02:26:48.323Z,0.00
2018-02-08T02:28:20.138Z,0.00
2018-02-08T02:29:51.954Z,0.00
2018-02-08T02:31:23.767Z,0.00
2018-02-08T02:32:55.583Z,0.00
2018-02-08T02:34:27.397Z,0.00
2018-02-08T02:35:59.211Z,0.00
2018-02-08T02:37:31.128Z,0.00
2018-02-08T02:39:02.840Z,0.00
2018-02-08T02:40:34.658Z,0.00
2018-02-08T02:42:06.471Z,0.00
2018-02-08T02:43:38.290Z,0.00
2018-02-08T02:45:10.100Z,0.00
2018-02-08T02:46:41.912Z,0.00
2018-02-08T02:48:13.728Z,0.00
2018-02-08T02:49:45.643Z,0.00
2018-02-08T02:51:17.357Z,0.00
2018-02-08T02:52:49.170Z,0.00
2018-02-08T02:54:20.987Z,0.00
2018-02-08T02:55:53.051Z,0.00
2018-02-08T02:57:24.614Z,0.00
2018-02-08T02:58:56.429Z,0.00
2018-02-08T03:00:28.243Z,0.00
2018-02-08T03:02:00.107Z,0.00
2018-02-08T03:03:31.872Z,0.00
2018-02-08T03:05:03.685Z,0.00
2018-02-08T03:06:35.499Z,0.00
2018-02-08T03:08:07.314Z,0.00
2018-02-08T03:09:39.128Z,0.00
2018-02-08T03:11:10.942Z,0.00
2018-02-08T03:12:42.756Z,0.00
2018-02-08T03:14:14.671Z,0.00
2018-02-08T03:15:46.385Z,0.00
2018-02-08T03:17:18.201Z,0.00
2018-02-08T03:18:50.014Z,0.00
2018-02-08T03:20:21.928Z,0.00
2018-02-08T03:21:53.642Z,0.00
2018-02-08T03:23:25.459Z,0.00
2018-02-08T03:24:57.266Z,0.00
2018-02-08T03:26:29.079Z,0.00
2018-02-08T03:28:00.894Z,0.00
2018-02-08T03:29:32.708Z,0.00
2018-02-08T03:31:04.522Z,0.00
2018-02-08T03:32:36.588Z,0.00
2018-02-08T03:34:08.151Z,0.00
2018-02-08T03:35:39.966Z,0.00
2018-02-08T03:37:11.779Z,0.00
2018-02-08T03:38:43.594Z,0.00
2018-02-08T03:40:15.407Z,0.00
2018-02-08T03:41:47.222Z,0.00
2018-02-08T03:43:19.036Z,0.00
2018-02-08T03:44:50.851Z,0.00
2018-02-08T03:46:22.668Z,0.00
2018-02-08T03:47:54.481Z,0.00
2018-02-08T03:49:26.294Z,0.00
2018-02-08T03:50:58.309Z,0.00
2018-02-08T03:52:29.924Z,0.00
2018-02-08T03:54:01.739Z,0.00
2018-02-08T03:55:33.551Z,0.00
2018-02-08T03:57:05.366Z,0.00
2018-02-08T03:58:37.180Z,0.00
2018-02-08T04:00:08.995Z,0.00
2018-02-08T04:01:40.810Z,0.00
2018-02-08T04:03:12.622Z,0.00
2018-02-08T04:04:44.437Z,0.00
2018-02-08T04:06:16.251Z,0.00
2018-02-08T04:07:48.065Z,0.00
2018-02-08T04:09:20.131Z,0.00
2018-02-08T04:10:51.695Z,0.00
2018-02-08T04:12:23.508Z,0.00
2018-02-08T04:13:55.321Z,0.00
2018-02-08T04:15:27.135Z,0.00
2018-02-08T04:16:58.949Z,0.00
2018-02-08T04:18:30.764Z,0.00
2018-02-08T04:20:02.581Z,0.00
2018-02-08T04:21:34.493Z,0.00
2018-02-08T04:23:06.208Z,0.00
2018-02-08T04:24:38.020Z,0.00
2018-02-08T04:26:09.836Z,0.00
2018-02-08T04:27:41.752Z,0.00
2018-02-08T04:29:13.465Z,0.00
2018-02-08T04:30:45.276Z,0.00
2018-02-08T04:32:17.090Z,0.00
2018-02-08T04:33:49.155Z,0.00
2018-02-08T04:35:20.719Z,0.00
2018-02-08T04:36:52.535Z,0.00
2018-02-08T04:38:24.346Z,0.00
2018-02-08T04:39:56.161Z,0.00
2018-02-08T04:41:27.974Z,0.00
2018-02-08T04:42:59.788Z,0.00
2018-02-08T04:44:31.602Z,0.00
2018-02-08T04:46:03.667Z,0.00
2018-02-08T04:47:35.230Z,0.00
2018-02-08T04:49:07.044Z,0.00
2018-02-08T04:50:38.857Z,0.00
2018-02-08T04:52:10.773Z,0.00
2018-02-08T04:53:42.486Z,0.00
2018-02-08T04:55:14.300Z,0.00
2018-02-08T04:56:46.113Z,0.00
2018-02-08T04:58:17.928Z,0.00
2018-02-08T04:59:49.742Z,0.00
2018-02-08T05:01:21.556Z,0.00
2018-02-08T05:02:53.369Z,0.00
2018-02-08T05:04:25.534Z,0.00
2018-02-08T05:05:56.997Z,0.00
2018-02-08T05:07:28.811Z,0.00
2018-02-08T05:09:00.626Z,0.00
2018-02-08T05:10:32.588Z,0.00
2018-02-08T05:12:04.252Z,0.00
2018-02-08T05:13:36.067Z,0.00
2018-02-08T05:15:07.880Z,0.00
2018-02-08T05:16:39.694Z,0.00
2018-02-08T05:18:11.508Z,0.00
2018-02-08T05:19:43.321Z,0.00
2018-02-08T05:21:15.137Z,0.00
2018-02-08T05:22:47.052Z,0.00
2018-02-08T05:24:18.763Z,0.00
2018-02-08T05:25:50.580Z,0.00
2018-02-08T05:27:22.390Z,0.00
2018-02-08T05:28:54.454Z,0.00
2018-02-08T05:30:26.019Z,0.00
2018-02-08T05:31:57.832Z,0.00
2018-02-08T05:33:29.645Z,0.00
2018-02-08T05:35:01.458Z,0.00
2018-02-08T05:36:33.272Z,0.00
2018-02-08T05:38:05.085Z,0.00
2018-02-08T05:39:36.899Z,0.00
2018-02-08T05:41:09.064Z,0.00
2018-02-08T05:42:40.531Z,0.00
2018-02-08T05:44:12.342Z,0.00
2018-02-08T05:45:44.154Z,0.00
2018-02-08T05:47:16.118Z,0.00
2018-02-08T05:48:47.783Z,0.00
2018-02-08T05:50:19.596Z,0.00
2018-02-08T05:51:51.409Z,0.00
2018-02-08T05:53:23.323Z,0.00
2018-02-08T05:54:55.038Z,0.00
2018-02-08T05:56:26.850Z,0.00
2018-02-08T05:57:58.663Z,0.00
2018-02-08T05:59:30.577Z,0.00
2018-02-08T06:01:02.291Z,0.00
2018-02-08T06:02:34.105Z,0.00
2018-02-08T06:04:05.919Z,0.00
2018-02-08T06:05:37.983Z,0.00
2018-02-08T06:07:09.546Z,0.00
2018-02-08T06:08:41.360Z,0.00
2018-02-08T06:10:13.173Z,0.00
2018-02-08T06:11:44.990Z,0.00
2018-02-08T06:13:16.802Z,0.00
2018-02-08T06:14:48.614Z,0.00
2018-02-08T06:16:20.429Z,0.00
2018-02-08T06:17:52.492Z,0.00
2018-02-08T06:19:24.056Z,0.00
2018-02-08T06:20:55.869Z,0.00
2018-02-08T06:22:27.683Z,0.00
2018-02-08T06:23:59.596Z,0.00
2018-02-08T06:25:31.310Z,0.00
2018-02-08T06:27:03.124Z,0.00
2018-02-08T06:28:34.939Z,0.00
2018-02-08T06:30:06.756Z,0.00
2018-02-08T06:31:38.570Z,0.00
2018-02-08T06:33:10.379Z,0.00
2018-02-08T06:34:42.193Z,0.00
2018-02-08T06:36:14.307Z,0.00
2018-02-08T06:37:45.820Z,0.00
2018-02-08T06:39:17.633Z,0.00
2018-02-08T06:40:49.448Z,0.00
2018-02-08T06:42:21.260Z,0.00
2018-02-08T06:43:53.074Z,0.00
2018-02-08T06:45:24.887Z,0.00
2018-02-08T06:46:56.701Z,0.00
2018-02-08T06:48:28.514Z,0.00
2018-02-08T06:50:00.328Z,0.00
2018-02-08T06:51:32.141Z,0.00
2018-02-08T06:53:03.954Z,0.00
2018-02-08T06:54:35.968Z,0.00
2018-02-08T06:56:07.653Z,0.00
2018-02-08T06:57:39.473Z,0.00
2018-02-08T06:59:11.280Z,0.00
2018-02-08T07:00:43.172Z,0.00
2018-02-08T07:02:14.835Z,0.00
2018-02-08T07:03:46.649Z,0.00
2018-02-08T07:05:18.462Z,0.00
2018-02-08T07:06:50.276Z,0.00
2018-02-08T07:08:22.091Z,0.00
2018-02-08T07:09:53.905Z,0.00
2018-02-08T07:11:25.717Z,0.00
2018-02-08T07:12:57.779Z,0.00
2018-02-08T07:14:29.342Z,0.00
2018-02-08T07:16:01.156Z,0.00
2018-02-08T07:17:32.970Z,0.00
2018-02-08T07:19:04.782Z,0.00
2018-02-08T07:20:36.596Z,0.00
2018-02-08T07:22:08.409Z,0.00
2018-02-08T07:23:40.223Z,0.00
2018-02-08T07:25:12.036Z,0.00
2018-02-08T07:26:43.849Z,0.00
2018-02-08T07:28:15.663Z,0.00
2018-02-08T07:29:47.475Z,0.00
2018-02-08T07:31:19.541Z,0.00
2018-02-08T07:32:51.102Z,0.00
2018-02-08T07:34:22.914Z,0.00
2018-02-08T07:35:54.728Z,0.00
2018-02-08T07:37:26.541Z,0.00
2018-02-08T07:38:58.354Z,0.00
2018-02-08T07:40:30.168Z,0.00
2018-02-08T07:42:01.981Z,0.00
2018-02-08T07:43:33.944Z,0.00
2018-02-08T07:45:05.607Z,0.00
2018-02-08T07:46:37.420Z,0.00
2018-02-08T07:48:09.233Z,0.00
2018-02-08T07:49:41.147Z,0.00
2018-02-08T07:51:12.860Z,0.00
2018-02-08T07:52:44.673Z,0.00
2018-02-08T07:54:16.486Z,0.00
2018-02-08T07:55:48.400Z,0.00
2018-02-08T07:57:20.112Z,0.00
2018-02-08T07:58:51.926Z,0.00
2018-02-08T08:00:23.742Z,0.00
2018-02-08T08:01:55.553Z,0.00
2018-02-08T08:03:27.366Z,0.00
2018-02-08T08:04:59.178Z,0.00
2018-02-08T08:06:30.991Z,0.00
2018-02-08T08:08:02.905Z,0.00
2018-02-08T08:09:34.618Z,0.00
2018-02-08T08:11:06.433Z,0.00
2018-02-08T08:12:38.244Z,0.00
2018-02-08T08:14:10.057Z,0.00
2018-02-08T08:15:41.870Z,0.00
2018-02-08T08:17:13.683Z,0.00
2018-02-08T08:18:45.495Z,0.00
2018-02-08T08:20:17.309Z,0.00
2018-02-08T08:21:49.121Z,0.00
2018-02-08T08:23:20.934Z,0.00
2018-02-08T08:24:52.747Z,4.00
2018-02-08T08:26:24.760Z,4.00
2018-02-08T08:27:56.373Z,4.00
2018-02-08T08:29:28.194Z,8.00
2018-02-08T08:30:59.999Z,12.00
2018-02-08T08:32:32.063Z,16.00
2018-02-08T08:34:03.625Z,24.00
2018-02-08T08:35:35.437Z,36.00
2018-02-08T08:37:07.251Z,52.00
2018-02-08T08:38:39.214Z,72.00
2018-02-08T08:40:10.877Z,104.00
2018-02-08T08:41:42.690Z,140.00
2018-02-08T08:43:14.503Z,188.00
2018-02-08T08:44:46.416Z,244.00
2018-02-08T08:46:18.129Z,316.00
2018-02-08T08:47:49.942Z,396.00
2018-02-08T08:49:21.756Z,484.00
2018-02-08T08:50:53.569Z,588.00
2018-02-08T08:52:25.382Z,704.00
2018-02-08T08:53:57.196Z,832.00
2018-02-08T08:55:29.009Z,972.00
2018-02-08T08:57:00.924Z,1124.00
2018-02-08T08:58:32.636Z,1296.00
2018-02-08T09:00:04.455Z,1472.00
2018-02-08T09:01:36.263Z,1652.00
2018-02-08T09:03:08.176Z,1844.00
2018-02-08T09:04:39.889Z,2032.00
2018-02-08T09:06:11.703Z,2236.00
2018-02-08T09:07:43.518Z,2460.00
2018-02-08T09:09:15.330Z,2724.00
2018-02-08T09:10:47.144Z,2988.00
2018-02-08T09:12:18.958Z,3232.00
2018-02-08T09:13:50.771Z,3480.00
2018-02-08T09:15:22.586Z,3752.00
2018-02-08T09:16:54.399Z,4104.00
2018-02-08T09:18:26.214Z,4416.00
2018-02-08T09:19:58.029Z,4704.00
2018-02-08T09:21:29.943Z,4996.00
2018-02-08T09:23:01.658Z,5200.00
2018-02-08T09:24:33.472Z,5452.00
2018-02-08T09:26:05.314Z,5668.00
2018-02-08T09:27:37.112Z,5900.00
2018-02-08T09:29:08.919Z,6216.00
2018-02-08T09:30:40.736Z,6572.00
2018-02-08T09:32:12.551Z,6764.00
2018-02-08T09:33:44.367Z,7024.00
2018-02-08T09:35:16.188Z,7212.00
2018-02-08T09:36:48.004Z,7620.00
2018-02-08T09:38:19.816Z,8168.00
2018-02-08T09:39:51.884Z,8616.00
2018-02-08T09:41:23.452Z,8924.00
2018-02-08T09:42:55.268Z,9244.00
2018-02-08T09:44:27.087Z,9624.00
2018-02-08T09:45:58.903Z,9944.00
2018-02-08T09:47:30.725Z,10272.00
2018-02-08T09:49:02.542Z,10628.00
2018-02-08T09:50:34.358Z,11068.00
2018-02-08T09:52:06.182Z,11280.00
2018-02-08T09:53:37.995Z,11712.00
2018-02-08T09:55:09.814Z,12416.00
2018-02-08T09:56:41.639Z,13200.00
2018-02-08T09:58:13.704Z,13964.00
2018-02-08T09:59:45.279Z,13904.00
2018-02-08T10:01:17.095Z,13484.00
2018-02-08T10:02:48.913Z,13572.00
2018-02-08T10:04:20.734Z,13968.00
2018-02-08T10:05:52.571Z,14400.00
2018-02-08T10:07:24.384Z,14452.00
2018-02-08T10:08:56.195Z,14872.00
2018-02-08T10:10:28.116Z,15812.00
2018-02-08T10:11:59.850Z,16148.00
2018-02-08T10:13:31.657Z,16088.00
2018-02-08T10:15:03.479Z,16764.00
2018-02-08T10:16:35.401Z,17232.00
2018-02-08T10:18:07.121Z,16200.00
2018-02-08T10:19:38.966Z,15564.00
2018-02-08T10:21:10.765Z,15932.00
2018-02-08T10:22:42.589Z,17424.00
2018-02-08T10:24:14.422Z,18880.00
2018-02-08T10:25:46.231Z,19840.00
2018-02-08T10:27:18.053Z,21984.00
2018-02-08T10:28:49.975Z,20704.00
2018-02-08T10:30:21.699Z,20384.00
2018-02-08T10:31:53.569Z,26272.00
2018-02-08T10:33:25.344Z,28576.00
2018-02-08T10:34:57.416Z,33696.00
2018-02-08T10:36:29.028Z,37600.00
2018-02-08T10:38:00.813Z,31328.00
2018-02-08T10:39:32.636Z,22624.00
2018-02-08T10:41:04.519Z,18368.00
2018-02-08T10:42:36.280Z,17216.00
2018-02-08T10:44:08.105Z,16832.00
2018-02-08T10:45:39.938Z,17000.00
2018-02-08T10:47:11.800Z,17212.00
2018-02-08T10:48:43.573Z,17368.00
2018-02-08T10:50:15.400Z,17524.00
2018-02-08T10:51:47.221Z,17312.00
2018-02-08T10:53:19.143Z,17608.00
2018-02-08T10:54:50.867Z,18016.00
2018-02-08T10:56:22.690Z,18348.00
2018-02-08T10:57:54.808Z,19712.00
2018-02-08T10:59:26.438Z,21088.00
2018-02-08T11:00:58.162Z,21792.00
2018-02-08T11:02:29.985Z,21824.00
2018-02-08T11:04:01.810Z,22464.00
2018-02-08T11:05:33.634Z,23488.00
2018-02-08T11:07:05.492Z,24672.00
2018-02-08T11:08:37.283Z,28128.00
2018-02-08T11:10:09.106Z,32064.00
2018-02-08T11:11:41.183Z,30624.00
2018-02-08T11:13:12.755Z,30624.00
2018-02-08T11:14:44.680Z,34528.00
2018-02-08T11:16:16.405Z,42368.00
2018-02-08T11:17:48.378Z,51776.00
2018-02-08T11:19:20.052Z,53568.00
2018-02-08T11:20:51.877Z,53600.00
2018-02-08T11:22:23.702Z,58592.00
2018-02-08T11:23:55.626Z,57216.00
2018-02-08T11:25:27.351Z,52864.00
2018-02-08T11:26:59.207Z,51264.00
2018-02-08T11:28:31.014Z,53472.00
2018-02-08T11:30:03.026Z,53824.00
2018-02-08T11:31:34.651Z,53504.00
2018-02-08T11:33:06.478Z,54624.00
2018-02-08T11:34:38.300Z,58112.00
2018-02-08T11:36:10.244Z,59392.00
2018-02-08T11:37:41.950Z,59488.00
2018-02-08T11:39:13.779Z,59168.00
2018-02-08T11:40:45.602Z,56288.00
2018-02-08T11:42:17.427Z,59104.00
2018-02-08T11:43:49.253Z,60640.00
2018-02-08T11:45:21.079Z,60160.00
2018-02-08T11:46:52.903Z,58880.00
2018-02-08T11:48:24.829Z,57824.00
2018-02-08T11:49:57.011Z,59264.00
2018-02-08T11:51:28.379Z,62112.00
2018-02-08T11:53:00.203Z,63008.00
2018-02-08T11:54:32.030Z,62144.00
2018-02-08T11:56:03.854Z,63872.00
2018-02-08T11:57:35.679Z,64928.00
2018-02-08T11:59:07.921Z,61152.00
2018-02-08T12:00:39.332Z,58688.00
2018-02-08T12:02:11.158Z,57856.00
2018-02-08T12:03:42.983Z,63168.00
2018-02-08T12:05:14.811Z,71328.00
2018-02-08T12:06:46.886Z,70592.00
2018-02-08T12:08:18.463Z,70016.00
2018-02-08T12:09:50.288Z,72960.00
2018-02-08T12:11:22.114Z,74720.00
2018-02-08T12:12:53.943Z,77728.00
2018-02-08T12:14:25.768Z,79328.00
2018-02-08T12:15:57.594Z,81376.00
2018-02-08T12:17:29.419Z,80704.00
2018-02-08T12:19:01.245Z,81248.00
2018-02-08T12:20:33.072Z,87456.00
2018-02-08T12:22:04.898Z,89024.00
2018-02-08T12:23:36.734Z,85952.00
2018-02-08T12:25:08.651Z,89216.00
2018-02-08T12:26:40.389Z,90688.00
2018-02-08T12:28:12.205Z,91808.00
2018-02-08T12:29:44.031Z,95488.00
2018-02-08T12:31:15.880Z,96224.00
2018-02-08T12:32:47.682Z,89024.00
2018-02-08T12:34:19.508Z,88768.00
2018-02-08T12:35:51.334Z,97312.00
2018-02-08T12:37:23.312Z,103296.00
2018-02-08T12:38:54.988Z,101216.00
2018-02-08T12:40:26.817Z,101696.00
2018-02-08T12:41:58.642Z,103520.00
2018-02-08T12:43:30.569Z,101920.00
2018-02-08T12:45:02.295Z,102336.00
2018-02-08T12:46:34.121Z,104096.00
2018-02-08T12:48:05.950Z,104768.00
2018-02-08T12:49:37.781Z,103424.00
2018-02-08T12:51:09.603Z,103840.00
2018-02-08T12:52:41.429Z,102400.00
2018-02-08T12:54:13.256Z,105088.00
2018-02-08T12:55:45.084Z,105568.00
2018-02-08T12:57:16.911Z,101408.00
2018-02-08T12:58:48.738Z,94176.00
2018-02-08T13:00:20.568Z,92544.00
2018-02-08T13:01:52.600Z,94272.00
2018-02-08T13:03:24.223Z,93312.00
2018-02-08T13:04:56.050Z,94688.00
2018-02-08T13:06:27.878Z,96320.00
2018-02-08T13:07:59.707Z,96384.00
2018-02-08T13:09:31.543Z,96800.00
2018-02-08T13:11:03.363Z,93472.00
2018-02-08T13:12:35.193Z,94560.00
2018-02-08T13:14:07.020Z,88128.00
2018-02-08T13:15:38.849Z,79808.00
2018-02-08T13:17:10.679Z,85440.00
2018-02-08T13:18:42.506Z,89504.00
2018-02-08T13:20:14.435Z,87424.00
2018-02-08T13:21:46.168Z,91392.00
2018-02-08T13:23:17.991Z,91840.00
2018-02-08T13:24:49.820Z,90080.00
2018-02-08T13:26:21.649Z,90624.00
2018-02-08T13:27:53.479Z,93952.00
2018-02-08T13:29:25.306Z,95456.00
2018-02-08T13:30:57.145Z,93088.00
2018-02-08T13:32:29.078Z,91712.00
2018-02-08T13:34:00.801Z,89952.00
2018-02-08T13:35:32.628Z,87040.00
2018-02-08T13:37:04.455Z,86112.00
2018-02-08T13:38:36.484Z,89280.00
2018-02-08T13:40:08.113Z,86752.00
2018-02-08T13:41:39.944Z,84576.00
2018-02-08T13:43:11.773Z,82944.00
2018-02-08T13:44:43.716Z,83808.00
2018-02-08T13:46:15.464Z,84256.00
2018-02-08T13:47:47.263Z,89280.00
2018-02-08T13:49:19.091Z,93536.00
2018-02-08T13:50:50.925Z,86816.00
2018-02-08T13:52:22.751Z,66848.00
2018-02-08T13:53:54.601Z,71968.00
2018-02-08T13:55:26.413Z,88000.00
2018-02-08T13:56:58.443Z,91776.00
2018-02-08T13:58:30.075Z,23104.00
2018-02-08T14:00:01.906Z,85504.00
2018-02-08T14:01:33.737Z,91808.00
2018-02-08T14:03:05.670Z,96896.00
2018-02-08T14:04:37.399Z,94464.00
2018-02-08T14:06:09.230Z,93056.00
2018-02-08T14:07:41.060Z,103328.00
2018-02-08T14:09:12.892Z,96480.00
2018-02-08T14:10:44.723Z,83200.00
2018-02-08T14:12:16.552Z,73568.00
2018-02-08T14:13:48.382Z,76096.00
2018-02-08T14:15:20.213Z,79296.00
2018-02-08T14:16:52.046Z,90816.00
2018-02-08T14:18:23.906Z,85504.00
2018-02-08T14:19:55.705Z,67744.00
2018-02-08T14:21:27.534Z,70304.00
2018-02-08T14:22:59.366Z,73120.00
2018-02-08T14:24:31.198Z,75680.00
2018-02-08T14:26:03.032Z,81344.00
2018-02-08T14:27:34.862Z,80288.00
2018-02-08T14:29:06.694Z,88928.00
2018-02-08T14:30:38.527Z,100128.00
2018-02-08T14:32:10.358Z,99616.00
2018-02-08T14:33:42.292Z,90496.00
2018-02-08T14:35:14.025Z,114272.00
2018-02-08T14:36:45.858Z,41120.00
2018-02-08T14:38:17.691Z,80896.00
2018-02-08T14:39:50.904Z,101600.00
2018-02-08T14:41:21.371Z,71200.00
2018-02-08T14:42:53.229Z,24608.00
2018-02-08T14:44:25.021Z,21760.00
2018-02-08T14:45:56.855Z,22176.00
2018-02-08T14:47:28.682Z,24576.00
2018-02-08T15:30:16.649Z,28960.00
2018-02-08T15:31:48.443Z,85248.00
2018-02-08T15:33:20.273Z,111680.00
2018-02-08T15:34:52.097Z,114016.00
2018-02-08T15:36:23.925Z,115488.00
2018-02-08T15:37:55.753Z,113664.00
2018-02-08T15:39:27.580Z,113824.00
2018-02-08T15:40:59.409Z,114720.00
2018-02-08T15:42:31.400Z,114528.00
2018-02-08T15:44:03.164Z,33600.00
2018-02-08T15:45:34.900Z,114528.00
2018-02-08T15:47:06.744Z,124608.00
2018-02-08T15:48:38.586Z,121632.00
2018-02-08T15:50:10.402Z,119520.00
2018-02-08T15:51:42.226Z,119360.00
2018-02-08T15:53:14.116Z,124576.00
2018-02-08T15:54:45.892Z,112128.00
2018-02-08T15:56:17.750Z,41568.00
2018-02-08T15:57:49.557Z,119776.00
2018-02-08T15:59:21.390Z,117344.00
2018-02-08T16:00:53.324Z,123680.00
2018-02-08T16:02:25.062Z,32928.00
2018-02-08T16:03:56.882Z,32800.00
2018-02-08T16:05:28.714Z,132032.00
2018-02-08T16:07:00.548Z,40672.00
2018-02-08T16:08:32.374Z,37408.00
2018-02-08T16:10:04.206Z,31872.00
2018-02-08T16:11:36.035Z,31264.00
2018-02-08T16:13:08.015Z,29472.00
2018-02-08T16:14:39.693Z,38496.00
2018-02-08T16:16:11.521Z,26240.00
2018-02-08T16:17:43.375Z,27168.00
2018-02-08T16:19:15.279Z,26816.00
2018-02-08T16:20:47.005Z,24864.00
2018-02-08T16:22:18.832Z,25152.00
2018-02-08T16:23:50.661Z,25696.00
2018-02-08T16:25:22.486Z,27520.00
2018-02-08T16:26:54.314Z,28160.00
2018-02-08T16:28:26.178Z,28256.00
2018-02-08T16:29:57.984Z,29056.00
2018-02-08T16:31:29.796Z,31520.00
2018-02-08T16:33:01.620Z,33888.00
2018-02-08T16:34:33.446Z,44224.00
2018-02-08T16:36:05.305Z,105632.00
2018-02-08T16:37:37.199Z,117344.00
2018-02-08T16:39:08.992Z,59936.00
2018-02-08T16:40:40.895Z,120000.00
2018-02-08T16:42:12.579Z,86496.00
2018-02-08T16:43:44.558Z,32384.00
2018-02-08T16:45:16.238Z,31360.00
2018-02-08T16:46:48.065Z,106048.00
2018-02-08T16:48:19.892Z,30432.00
2018-02-08T16:49:51.744Z,30784.00
2018-02-08T16:51:23.600Z,30720.00
2018-02-08T16:52:55.376Z,32128.00
2018-02-08T16:54:27.216Z,126048.00
2018-02-08T16:55:59.153Z,109824.00
2018-02-08T16:57:30.859Z,38560.00
2018-02-08T16:59:02.687Z,38112.00
2018-02-08T17:00:34.515Z,116992.00
2018-02-08T17:02:06.541Z,128768.00
2018-02-08T17:03:38.399Z,129920.00
2018-02-08T17:05:10.072Z,127552.00
2018-02-08T17:06:41.930Z,122176.00
2018-02-08T17:08:13.802Z,117568.00
2018-02-08T17:09:45.605Z,115680.00
2018-02-08T17:11:17.337Z,118560.00
2018-02-08T17:12:49.153Z,116512.00
2018-02-08T17:14:21.083Z,114240.00
2018-02-08T17:15:52.846Z,114176.00
2018-02-08T17:17:25.005Z,116544.00
2018-02-08T17:18:56.485Z,117728.00
2018-02-08T17:20:28.574Z,119072.00
2018-02-08T17:22:00.147Z,117088.00
2018-02-08T17:23:32.191Z,119104.00
2018-02-08T17:25:03.900Z,122080.00
2018-02-08T17:26:36.032Z,124384.00
2018-02-08T17:28:07.818Z,44512.00
2018-02-08T17:29:39.314Z,75680.00
2018-02-08T17:31:11.149Z,122976.00
2018-02-08T17:32:43.077Z,79936.00
2018-02-08T17:34:14.817Z,39232.00
2018-02-08T17:35:46.934Z,63296.00
2018-02-08T17:37:18.546Z,55168.00
2018-02-08T17:38:50.476Z,29600.00
2018-02-08T17:40:22.208Z,27872.00
2018-02-08T17:41:53.967Z,26240.00
2018-02-08T17:43:25.797Z,25216.00
2018-02-08T17:44:57.779Z,25184.00
2018-02-08T17:46:29.457Z,25120.00
2018-02-08T17:48:01.283Z,23808.00
2018-02-08T17:49:33.121Z,22368.00
2018-02-08T17:51:05.059Z,22016.00
2018-02-08T17:52:36.765Z,25088.00
2018-02-08T17:54:08.590Z,29408.00
2018-02-08T17:55:40.419Z,58848.00
2018-02-08T17:57:12.243Z,103360.00
2018-02-08T17:58:44.115Z,39392.00
2018-02-08T18:00:15.894Z,116320.00
2018-02-08T18:01:47.720Z,109120.00
2018-02-08T18:03:19.546Z,102464.00
2018-02-08T18:04:51.373Z,102112.00
2018-02-08T18:06:23.199Z,101856.00
2018-02-08T18:07:55.026Z,101792.00
2018-02-08T18:09:27.822Z,101824.00
2018-02-08T18:10:58.681Z,84768.00
2018-02-08T18:12:30.520Z,28960.00
2018-02-08T18:14:02.338Z,34656.00
2018-02-08T18:15:34.324Z,35200.00
2018-02-08T18:17:05.992Z,38016.00
2018-02-08T18:18:37.820Z,31872.00
2018-02-08T18:20:09.652Z,34656.00
2018-02-08T18:21:41.474Z,34080.00
2018-02-08T18:23:13.300Z,51008.00
2018-02-08T18:24:45.126Z,43008.00
2018-02-08T18:26:16.953Z,34880.00
2018-02-08T18:27:48.878Z,30944.00
2018-02-08T18:29:20.605Z,31328.00
2018-02-08T18:30:52.432Z,28544.00
2018-02-08T18:32:24.258Z,27200.00
2018-02-08T18:33:56.106Z,27392.00
2018-02-08T18:35:28.091Z,44960.00
2018-02-08T18:36:59.764Z,30272.00
2018-02-08T18:38:31.560Z,31808.00
2018-02-08T18:40:03.386Z,33344.00
2018-02-08T18:41:35.210Z,32768.00
2018-02-08T18:43:07.036Z,32224.00
2018-02-08T18:44:39.073Z,33248.00
2018-02-08T18:46:10.790Z,63520.00
2018-02-08T18:47:42.512Z,83904.00
2018-02-08T18:49:14.361Z,79936.00
2018-02-08T18:50:46.192Z,77440.00
2018-02-08T18:52:17.996Z,75392.00
2018-02-08T18:53:49.819Z,76192.00
2018-02-08T18:55:21.797Z,75904.00
2018-02-08T18:56:53.469Z,72736.00
2018-02-08T18:58:25.295Z,75616.00
2018-02-08T18:59:57.135Z,76416.00
2018-02-08T19:01:28.949Z,76544.00
2018-02-08T19:03:00.778Z,63008.00
2018-02-08T19:04:32.879Z,40256.00
2018-02-08T19:06:04.431Z,69664.00
2018-02-08T19:07:36.298Z,57984.00
2018-02-08T19:09:08.112Z,34880.00
2018-02-08T19:10:40.031Z,31072.00
2018-02-08T19:12:11.739Z,31008.00
2018-02-08T19:13:43.566Z,30848.00
2018-02-08T19:15:15.400Z,30144.00
2018-02-08T19:16:47.220Z,35744.00
2018-02-08T19:18:19.045Z,58816.00
2018-02-08T19:19:50.872Z,42944.00
2018-02-08T19:21:22.721Z,51136.00
2018-02-08T19:22:54.623Z,42816.00
2018-02-08T19:24:26.349Z,31200.00
2018-02-08T19:25:58.200Z,40416.00
2018-02-08T19:27:30.003Z,30560.00
2018-02-08T19:29:01.826Z,38528.00
2018-02-08T19:30:33.652Z,36160.00
2018-02-08T19:32:05.478Z,23872.00
2018-02-08T19:33:37.302Z,17452.00
2018-02-08T19:35:09.126Z,16436.00
2018-02-08T19:36:40.952Z,15460.00
2018-02-08T19:38:12.778Z,16000.00
2018-02-08T19:39:44.602Z,17080.00